sensor_id;sensor_type;location;lat;lon;timestamp;temperature;humidity
71514;DHT22;59335;46.652;21.272;2023-02-21T00:02:01;22.50;36.80
71514;DHT22;59335;46.652;21.272;2023-02-21T00:05:22;22.50;36.77
71514;DHT22;59335;46.652;21.272;2023-02-21T00:08:45;22.51;36.76
71514;DHT22;59335;46.652;21.272;2023-02-21T00:12:06;22.48;36.80
71514;DHT22;59335;46.652;21.272;2023-02-21T00:15:28;22.51;36.65
71514;DHT22;59335;46.652;21.272;2023-02-21T00:18:50;22.51;36.71
71514;DHT22;59335;46.652;21.272;2023-02-21T00:22:11;22.53;36.70
71514;DHT22;59335;46.652;21.272;2023-02-21T00:25:32;22.50;36.75
71514;DHT22;59335;46.652;21.272;2023-02-21T00:28:54;22.51;36.73
71514;DHT22;59335;46.652;21.272;2023-02-21T00:32:15;22.53;36.79
71514;DHT22;59335;46.652;21.272;2023-02-21T00:35:37;22.50;36.81
71514;DHT22;59335;46.652;21.272;2023-02-21T00:39:00;22.50;36.84
71514;DHT22;59335;46.652;21.272;2023-02-21T00:42:21;22.53;36.89
71514;DHT22;59335;46.652;21.272;2023-02-21T00:45:43;22.53;36.84
71514;DHT22;59335;46.652;21.272;2023-02-21T00:49:05;22.54;36.87
71514;DHT22;59335;46.652;21.272;2023-02-21T00:52:26;22.51;36.81
71514;DHT22;59335;46.652;21.272;2023-02-21T00:55:47;22.53;36.81
71514;DHT22;59335;46.652;21.272;2023-02-21T00:59:09;22.51;36.76
71514;DHT22;59335;46.652;21.272;2023-02-21T01:02:30;22.53;36.79
71514;DHT22;59335;46.652;21.272;2023-02-21T01:05:52;22.53;36.79
71514;DHT22;59335;46.652;21.272;2023-02-21T01:09:14;22.54;36.79
71514;DHT22;59335;46.652;21.272;2023-02-21T01:12:35;22.51;36.84
71514;DHT22;59335;46.652;21.272;2023-02-21T01:15:58;22.53;36.84
71514;DHT22;59335;46.652;21.272;2023-02-21T01:19:20;22.53;36.80
71514;DHT22;59335;46.652;21.272;2023-02-21T01:22:41;22.54;36.83
71514;DHT22;59335;46.652;21.272;2023-02-21T01:26:03;22.54;36.87
71514;DHT22;59335;46.652;21.272;2023-02-21T01:29:24;22.54;36.89
71514;DHT22;59335;46.652;21.272;2023-02-21T01:32:45;22.54;36.93
71514;DHT22;59335;46.652;21.272;2023-02-21T01:36:07;22.54;36.87
71514;DHT22;59335;46.652;21.272;2023-02-21T01:39:29;22.55;36.79
71514;DHT22;59335;46.652;21.272;2023-02-21T01:42:50;22.54;36.77
71514;DHT22;59335;46.652;21.272;2023-02-21T01:46:14;22.54;36.72
71514;DHT22;59335;46.652;21.272;2023-02-21T01:49:38;22.54;36.72
71514;DHT22;59335;46.652;21.272;2023-02-21T01:53:02;22.53;36.66
71514;DHT22;59335;46.652;21.272;2023-02-21T01:56:25;22.53;36.66
71514;DHT22;59335;46.652;21.272;2023-02-21T01:59:47;22.55;36.66
71514;DHT22;59335;46.652;21.272;2023-02-21T02:03:19;22.54;36.63
71514;DHT22;59335;46.652;21.272;2023-02-21T02:06:42;22.53;36.63
71514;DHT22;59335;46.652;21.272;2023-02-21T02:10:06;22.54;36.63
71514;DHT22;59335;46.652;21.272;2023-02-21T02:17:30;22.53;36.58
71514;DHT22;59335;46.652;21.272;2023-02-21T02:31:13;22.50;36.40
71514;DHT22;59335;46.652;21.272;2023-02-21T02:37:55;22.50;36.34
71514;DHT22;59335;46.652;21.272;2023-02-21T02:41:04;22.53;36.26
71514;DHT22;59335;46.652;21.272;2023-02-21T02:44:18;22.51;36.21
71514;DHT22;59335;46.652;21.272;2023-02-21T02:47:26;22.53;36.20
71514;DHT22;59335;46.652;21.272;2023-02-21T02:50:32;22.51;36.11
71514;DHT22;59335;46.652;21.272;2023-02-21T02:53:38;22.50;36.11
71514;DHT22;59335;46.652;21.272;2023-02-21T02:56:41;22.50;36.06
71514;DHT22;59335;46.652;21.272;2023-02-21T02:59:45;22.50;36.00
71514;DHT22;59335;46.652;21.272;2023-02-21T03:06:21;22.50;36.03
71514;DHT22;59335;46.652;21.272;2023-02-21T03:09:31;22.51;36.03
71514;DHT22;59335;46.652;21.272;2023-02-21T03:13:17;22.54;36.09
71514;DHT22;59335;46.652;21.272;2023-02-21T03:16:27;22.53;36.11
71514;DHT22;59335;46.652;21.272;2023-02-21T03:19:34;22.50;36.19
71514;DHT22;59335;46.652;21.272;2023-02-21T03:22:39;22.51;36.19
71514;DHT22;59335;46.652;21.272;2023-02-21T03:25:44;22.53;36.26
71514;DHT22;59335;46.652;21.272;2023-02-21T03:28:49;22.53;36.31
71514;DHT22;59335;46.652;21.272;2023-02-21T03:32:33;22.54;36.33
71514;DHT22;59335;46.652;21.272;2023-02-21T03:35:38;22.55;36.37
71514;DHT22;59335;46.652;21.272;2023-02-21T03:38:41;22.54;36.33
71514;DHT22;59335;46.652;21.272;2023-02-21T03:41:43;22.53;36.38
71514;DHT22;59335;46.652;21.272;2023-02-21T03:44:46;22.55;36.40
71514;DHT22;59335;46.652;21.272;2023-02-21T03:47:50;22.57;36.39
71514;DHT22;59335;46.652;21.272;2023-02-21T03:50:53;22.55;36.37
71514;DHT22;59335;46.652;21.272;2023-02-21T03:53:59;22.57;36.37
71514;DHT22;59335;46.652;21.272;2023-02-21T03:57:09;22.55;36.37
71514;DHT22;59335;46.652;21.272;2023-02-21T04:00:18;22.55;36.38
71514;DHT22;59335;46.652;21.272;2023-02-21T04:03:26;22.58;36.40
71514;DHT22;59335;46.652;21.272;2023-02-21T04:06:32;22.55;36.41
71514;DHT22;59335;46.652;21.272;2023-02-21T04:09:36;22.57;36.46
71514;DHT22;59335;46.652;21.272;2023-02-21T04:12:42;22.58;36.42
71514;DHT22;59335;46.652;21.272;2023-02-21T04:15:44;22.55;36.44
71514;DHT22;59335;46.652;21.272;2023-02-21T04:18:47;22.55;36.38
71514;DHT22;59335;46.652;21.272;2023-02-21T04:21:51;22.55;36.51
71514;DHT22;59335;46.652;21.272;2023-02-21T04:24:53;22.58;36.43
71514;DHT22;59335;46.652;21.272;2023-02-21T04:27:58;22.57;36.43
71514;DHT22;59335;46.652;21.272;2023-02-21T04:31:00;22.60;36.41
71514;DHT22;59335;46.652;21.272;2023-02-21T04:34:04;22.60;36.40
71514;DHT22;59335;46.652;21.272;2023-02-21T04:37:16;22.60;36.40
71514;DHT22;59335;46.652;21.272;2023-02-21T04:40:19;22.57;36.48
71514;DHT22;59335;46.652;21.272;2023-02-21T04:43:21;22.60;36.40
71514;DHT22;59335;46.652;21.272;2023-02-21T04:46:25;22.57;36.44
71514;DHT22;59335;46.652;21.272;2023-02-21T04:49:28;22.58;36.43
71514;DHT22;59335;46.652;21.272;2023-02-21T04:52:31;22.60;36.41
71514;DHT22;59335;46.652;21.272;2023-02-21T04:55:34;22.57;36.37
71514;DHT22;59335;46.652;21.272;2023-02-21T04:58:36;22.54;36.43
71514;DHT22;59335;46.652;21.272;2023-02-21T05:01:47;22.60;36.41
71514;DHT22;59335;46.652;21.272;2023-02-21T05:04:49;22.60;36.42
71514;DHT22;59335;46.652;21.272;2023-02-21T05:07:52;22.58;36.40
71514;DHT22;59335;46.652;21.272;2023-02-21T05:10:56;22.58;36.42
71514;DHT22;59335;46.652;21.272;2023-02-21T05:14:01;22.60;36.40
71514;DHT22;59335;46.652;21.272;2023-02-21T05:17:13;22.60;36.40
71514;DHT22;59335;46.652;21.272;2023-02-21T05:20:21;22.60;36.43
71514;DHT22;59335;46.652;21.272;2023-02-21T05:23:48;22.58;36.43
71514;DHT22;59335;46.652;21.272;2023-02-21T05:27:08;22.63;36.39
71514;DHT22;59335;46.652;21.272;2023-02-21T05:30:27;22.58;36.44
71514;DHT22;59335;46.652;21.272;2023-02-21T05:33:33;22.58;36.39
71514;DHT22;59335;46.652;21.272;2023-02-21T05:36:41;22.58;36.43
71514;DHT22;59335;46.652;21.272;2023-02-21T05:40:01;22.60;36.40
71514;DHT22;59335;46.652;21.272;2023-02-21T05:43:07;22.63;36.39
71514;DHT22;59335;46.652;21.272;2023-02-21T05:46:29;22.61;36.38
71514;DHT22;59335;46.652;21.272;2023-02-21T05:49:51;22.64;36.40
71514;DHT22;59335;46.652;21.272;2023-02-21T05:53:14;22.64;36.39
71514;DHT22;59335;46.652;21.272;2023-02-21T05:56:20;22.63;36.38
71514;DHT22;59335;46.652;21.272;2023-02-21T05:59:36;22.65;36.31
71514;DHT22;59335;46.652;21.272;2023-02-21T06:02:48;22.65;36.33
71514;DHT22;59335;46.652;21.272;2023-02-21T06:05:55;22.69;36.27
71514;DHT22;59335;46.652;21.272;2023-02-21T06:09:05;22.71;36.27
71514;DHT22;59335;46.652;21.272;2023-02-21T06:12:17;22.71;36.29
71514;DHT22;59335;46.652;21.272;2023-02-21T06:15:43;22.72;36.39
71514;DHT22;59335;46.652;21.272;2023-02-21T06:18:54;22.78;36.32
71514;DHT22;59335;46.652;21.272;2023-02-21T06:22:00;22.84;36.33
71514;DHT22;59335;46.652;21.272;2023-02-21T06:25:16;22.88;36.23
71514;DHT22;59335;46.652;21.272;2023-02-21T06:28:19;22.94;36.31
71514;DHT22;59335;46.652;21.272;2023-02-21T06:35:52;23.01;36.33
71514;DHT22;59335;46.652;21.272;2023-02-21T06:39:28;22.99;36.58
71514;DHT22;59335;46.652;21.272;2023-02-21T06:47:31;23.05;36.49
71514;DHT22;59335;46.652;21.272;2023-02-21T06:50:34;23.08;36.50
71514;DHT22;59335;46.652;21.272;2023-02-21T06:53:43;23.13;36.55
71514;DHT22;59335;46.652;21.272;2023-02-21T06:56:52;23.20;36.74
71514;DHT22;59335;46.652;21.272;2023-02-21T06:59:55;23.23;36.91
71514;DHT22;59335;46.652;21.272;2023-02-21T07:02:57;23.24;37.13
71514;DHT22;59335;46.652;21.272;2023-02-21T07:06:00;23.34;37.22
71514;DHT22;59335;46.652;21.272;2023-02-21T07:09:04;23.36;37.46
71514;DHT22;59335;46.652;21.272;2023-02-21T07:12:07;23.43;37.37
71514;DHT22;59335;46.652;21.272;2023-02-21T07:15:10;23.46;37.26
71514;DHT22;59335;46.652;21.272;2023-02-21T07:18:13;23.47;37.27
71514;DHT22;59335;46.652;21.272;2023-02-21T07:21:17;23.47;37.28
71514;DHT22;59335;46.652;21.272;2023-02-21T07:24:21;23.53;37.30
71514;DHT22;59335;46.652;21.272;2023-02-21T07:27:24;23.57;37.27
71514;DHT22;59335;46.652;21.272;2023-02-21T07:30:26;23.61;37.37
71514;DHT22;59335;46.652;21.272;2023-02-21T07:33:29;23.67;37.29
71514;DHT22;59335;46.652;21.272;2023-02-21T07:36:32;23.71;37.33
71514;DHT22;59335;46.652;21.272;2023-02-21T07:39:35;23.75;37.26
71514;DHT22;59335;46.652;21.272;2023-02-21T07:42:42;23.75;37.26
71514;DHT22;59335;46.652;21.272;2023-02-21T07:45:49;23.81;37.29
71514;DHT22;59335;46.652;21.272;2023-02-21T07:48:55;23.82;37.31
71514;DHT22;59335;46.652;21.272;2023-02-21T07:51:58;23.81;37.42
71514;DHT22;59335;46.652;21.272;2023-02-21T07:55:01;23.82;37.53
71514;DHT22;59335;46.652;21.272;2023-02-21T07:58:06;23.87;37.49
71514;DHT22;59335;46.652;21.272;2023-02-21T08:01:10;23.87;37.56
71514;DHT22;59335;46.652;21.272;2023-02-21T08:04:13;23.87;37.59
71514;DHT22;59335;46.652;21.272;2023-02-21T08:07:17;23.87;37.62
71514;DHT22;59335;46.652;21.272;2023-02-21T08:10:24;23.93;37.56
71514;DHT22;59335;46.652;21.272;2023-02-21T08:13:27;23.91;37.49
71514;DHT22;59335;46.652;21.272;2023-02-21T08:16:30;23.93;37.63
71514;DHT22;59335;46.652;21.272;2023-02-21T08:19:37;23.96;37.54
71514;DHT22;59335;46.652;21.272;2023-02-21T08:22:40;23.96;37.57
71514;DHT22;59335;46.652;21.272;2023-02-21T08:25:43;23.98;37.52
71514;DHT22;59335;46.652;21.272;2023-02-21T08:28:47;24.00;37.55
71514;DHT22;59335;46.652;21.272;2023-02-21T08:31:51;23.98;37.59
71514;DHT22;59335;46.652;21.272;2023-02-21T08:34:54;24.02;37.65
71514;DHT22;59335;46.652;21.272;2023-02-21T08:37:57;24.01;37.69
71514;DHT22;59335;46.652;21.272;2023-02-21T08:41:04;24.04;37.74
71514;DHT22;59335;46.652;21.272;2023-02-21T08:44:11;24.01;37.84
71514;DHT22;59335;46.652;21.272;2023-02-21T08:47:16;24.02;37.97
71514;DHT22;59335;46.652;21.272;2023-02-21T08:50:21;24.01;38.07
71514;DHT22;59335;46.652;21.272;2023-02-21T08:53:24;24.00;38.01
71514;DHT22;59335;46.652;21.272;2023-02-21T08:56:29;24.01;38.28
71514;DHT22;59335;46.652;21.272;2023-02-21T08:59:41;24.02;38.38
71514;DHT22;59335;46.652;21.272;2023-02-21T09:02:45;24.04;38.35
71514;DHT22;59335;46.652;21.272;2023-02-21T09:05:50;24.02;38.30
71514;DHT22;59335;46.652;21.272;2023-02-21T09:08:55;24.02;38.45
71514;DHT22;59335;46.652;21.272;2023-02-21T09:11:59;24.00;38.49
71514;DHT22;59335;46.652;21.272;2023-02-21T09:15:05;24.01;38.52
71514;DHT22;59335;46.652;21.272;2023-02-21T09:18:10;23.94;38.57
71514;DHT22;59335;46.652;21.272;2023-02-21T09:21:14;23.94;38.63
71514;DHT22;59335;46.652;21.272;2023-02-21T09:24:17;23.93;38.62
71514;DHT22;59335;46.652;21.272;2023-02-21T09:27:20;23.96;38.60
71514;DHT22;59335;46.652;21.272;2023-02-21T09:30:41;23.90;38.52
71514;DHT22;59335;46.652;21.272;2023-02-21T09:33:44;23.80;37.67
71514;DHT22;59335;46.652;21.272;2023-02-21T09:36:48;23.70;37.31
71514;DHT22;59335;46.652;21.272;2023-02-21T09:39:52;23.64;36.97
71514;DHT22;59335;46.652;21.272;2023-02-21T09:42:57;23.57;37.49
71514;DHT22;59335;46.652;21.272;2023-02-21T10:10:50;23.40;37.74
71514;DHT22;59335;46.652;21.272;2023-02-21T10:17:37;23.47;37.79
71514;DHT22;59335;46.652;21.272;2023-02-21T10:20:54;23.50;37.88
71514;DHT22;59335;46.652;21.272;2023-02-21T10:24:01;23.51;37.88
71514;DHT22;59335;46.652;21.272;2023-02-21T10:27:13;23.53;37.92
71514;DHT22;59335;46.652;21.272;2023-02-21T10:30:37;23.54;37.94
71514;DHT22;59335;46.652;21.272;2023-02-21T10:33:42;23.53;37.99
71514;DHT22;59335;46.652;21.272;2023-02-21T10:37:00;23.56;38.36
71514;DHT22;59335;46.652;21.272;2023-02-21T10:40:26;23.54;38.15
71514;DHT22;59335;46.652;21.272;2023-02-21T10:43:43;23.54;38.07
71514;DHT22;59335;46.652;21.272;2023-02-21T10:47:13;23.53;38.22
71514;DHT22;59335;46.652;21.272;2023-02-21T10:50:35;23.47;38.48
71514;DHT22;59335;46.652;21.272;2023-02-21T10:53:42;23.47;38.79
71514;DHT22;59335;46.652;21.272;2023-02-21T10:56:48;23.50;38.85
71514;DHT22;59335;46.652;21.272;2023-02-21T10:59:54;23.54;39.48
71514;DHT22;59335;46.652;21.272;2023-02-21T11:03:03;23.59;39.45
71514;DHT22;59335;46.652;21.272;2023-02-21T11:06:07;23.57;39.43
71514;DHT22;59335;46.652;21.272;2023-02-21T11:12:43;23.50;39.95
71514;DHT22;59335;46.652;21.272;2023-02-21T11:15:46;23.50;39.75
71514;DHT22;59335;46.652;21.272;2023-02-21T11:19:06;23.49;39.70
71514;DHT22;59335;46.652;21.272;2023-02-21T11:22:09;23.46;39.73
71514;DHT22;59335;46.652;21.272;2023-02-21T11:28:27;23.42;39.54
71514;DHT22;59335;46.652;21.272;2023-02-21T11:31:32;23.36;39.66
71514;DHT22;59335;46.652;21.272;2023-02-21T11:34:35;23.36;39.57
71514;DHT22;59335;46.652;21.272;2023-02-21T11:37:49;23.34;39.61
71514;DHT22;59335;46.652;21.272;2023-02-21T11:40:56;23.32;39.60
71514;DHT22;59335;46.652;21.272;2023-02-21T11:43:59;23.33;39.46
71514;DHT22;59335;46.652;21.272;2023-02-21T11:47:23;23.32;39.47
71514;DHT22;59335;46.652;21.272;2023-02-21T11:50:36;23.33;39.88
71514;DHT22;59335;46.652;21.272;2023-02-21T11:53:42;23.34;39.92
71514;DHT22;59335;46.652;21.272;2023-02-21T11:57:02;23.30;40.19
71514;DHT22;59335;46.652;21.272;2023-02-21T12:00:17;23.43;40.26
71514;DHT22;59335;46.652;21.272;2023-02-21T12:10:45;23.47;40.20
71514;DHT22;59335;46.652;21.272;2023-02-21T12:21:02;23.46;40.19
71514;DHT22;59335;46.652;21.272;2023-02-21T12:31:29;23.49;40.61
71514;DHT22;59335;46.652;21.272;2023-02-21T12:38:13;23.47;40.85
71514;DHT22;59335;46.652;21.272;2023-02-21T12:55:25;23.38;40.25
71514;DHT22;59335;46.652;21.272;2023-02-21T13:02:26;23.43;40.42
71514;DHT22;59335;46.652;21.272;2023-02-21T13:05:43;23.42;40.21
71514;DHT22;59335;46.652;21.272;2023-02-21T13:09:00;23.34;40.13
71514;DHT22;59335;46.652;21.272;2023-02-21T13:12:20;23.38;39.98
71514;DHT22;59335;46.652;21.272;2023-02-21T13:15:27;23.39;40.11
71514;DHT22;59335;46.652;21.272;2023-02-21T13:18:46;23.38;40.17
71514;DHT22;59335;46.652;21.272;2023-02-21T13:28:37;23.47;40.13
71514;DHT22;59335;46.652;21.272;2023-02-21T13:31:43;23.49;40.18
71514;DHT22;59335;46.652;21.272;2023-02-21T13:34:58;23.50;40.12
71514;DHT22;59335;46.652;21.272;2023-02-21T13:38:04;23.50;40.06
71514;DHT22;59335;46.652;21.272;2023-02-21T13:41:10;23.50;40.05
71514;DHT22;59335;46.652;21.272;2023-02-21T13:44:40;23.51;40.11
71514;DHT22;59335;46.652;21.272;2023-02-21T14:01:40;23.33;38.99
71514;DHT22;59335;46.652;21.272;2023-02-21T14:05:00;23.32;38.97
71514;DHT22;59335;46.652;21.272;2023-02-21T14:08:06;23.30;38.88
71514;DHT22;59335;46.652;21.272;2023-02-21T14:11:27;23.27;38.81
71514;DHT22;59335;46.652;21.272;2023-02-21T14:14:34;23.26;38.71
71514;DHT22;59335;46.652;21.272;2023-02-21T14:17:41;23.20;38.63
71514;DHT22;59335;46.652;21.272;2023-02-21T14:20:47;23.22;38.56
71514;DHT22;59335;46.652;21.272;2023-02-21T14:24:00;23.22;38.79
71514;DHT22;59335;46.652;21.272;2023-02-21T14:27:04;23.22;38.76
71514;DHT22;59335;46.652;21.272;2023-02-21T14:30:31;23.26;38.85
71514;DHT22;59335;46.652;21.272;2023-02-21T14:33:35;23.23;38.83
71514;DHT22;59335;46.652;21.272;2023-02-21T14:36:38;23.24;38.82
71514;DHT22;59335;46.652;21.272;2023-02-21T14:39:45;23.27;38.71
71514;DHT22;59335;46.652;21.272;2023-02-21T14:43:21;23.26;38.65
71514;DHT22;59335;46.652;21.272;2023-02-21T14:50:13;23.22;38.64
71514;DHT22;59335;46.652;21.272;2023-02-21T15:00:05;23.19;38.44
71514;DHT22;59335;46.652;21.272;2023-02-21T15:03:29;23.18;38.40
71514;DHT22;59335;46.652;21.272;2023-02-21T15:06:39;23.16;38.41
71514;DHT22;59335;46.652;21.272;2023-02-21T15:13:30;23.19;38.49
71514;DHT22;59335;46.652;21.272;2023-02-21T15:16:43;23.18;38.57
71514;DHT22;59335;46.652;21.272;2023-02-21T15:19:46;23.16;38.53
71514;DHT22;59335;46.652;21.272;2023-02-21T15:22:55;23.18;38.60
71514;DHT22;59335;46.652;21.272;2023-02-21T15:26:08;23.15;38.63
71514;DHT22;59335;46.652;21.272;2023-02-21T15:29:17;23.18;38.65
71514;DHT22;59335;46.652;21.272;2023-02-21T15:32:20;23.15;38.65
71514;DHT22;59335;46.652;21.272;2023-02-21T15:35:43;23.15;38.67
71514;DHT22;59335;46.652;21.272;2023-02-21T15:39:06;23.16;38.68
71514;DHT22;59335;46.652;21.272;2023-02-21T15:42:14;23.13;38.70
71514;DHT22;59335;46.652;21.272;2023-02-21T15:48:25;23.16;38.62
71514;DHT22;59335;46.652;21.272;2023-02-21T15:51:28;23.15;38.72
71514;DHT22;59335;46.652;21.272;2023-02-21T15:54:33;23.13;38.76
71514;DHT22;59335;46.652;21.272;2023-02-21T15:57:39;23.12;38.78
71514;DHT22;59335;46.652;21.272;2023-02-21T16:00:45;23.09;39.60
71514;DHT22;59335;46.652;21.272;2023-02-21T16:03:50;23.06;40.19
71514;DHT22;59335;46.652;21.272;2023-02-21T16:06:56;22.98;51.80
71514;DHT22;59335;46.652;21.272;2023-02-21T16:10:04;23.01;48.30
71514;DHT22;59335;46.652;21.272;2023-02-21T16:13:13;22.99;47.41
71514;DHT22;59335;46.652;21.272;2023-02-21T16:16:17;23.02;46.62
71514;DHT22;59335;46.652;21.272;2023-02-21T16:19:21;22.99;45.78
71514;DHT22;59335;46.652;21.272;2023-02-21T16:22:35;23.02;44.71
71514;DHT22;59335;46.652;21.272;2023-02-21T16:29:17;23.02;43.50
71514;DHT22;59335;46.652;21.272;2023-02-21T16:32:20;23.01;43.15
71514;DHT22;59335;46.652;21.272;2023-02-21T16:35:25;23.03;43.14
71514;DHT22;59335;46.652;21.272;2023-02-21T16:38:28;23.02;43.00
71514;DHT22;59335;46.652;21.272;2023-02-21T16:41:32;23.03;42.65
71514;DHT22;59335;46.652;21.272;2023-02-21T16:44:35;23.02;42.61
71514;DHT22;59335;46.652;21.272;2023-02-21T16:47:39;23.03;42.61
71514;DHT22;59335;46.652;21.272;2023-02-21T16:50:44;23.03;42.54
71514;DHT22;59335;46.652;21.272;2023-02-21T16:53:48;23.03;42.44
71514;DHT22;59335;46.652;21.272;2023-02-21T16:56:52;23.03;42.25
71514;DHT22;59335;46.652;21.272;2023-02-21T16:59:56;23.02;42.14
71514;DHT22;59335;46.652;21.272;2023-02-21T17:02:59;23.03;42.02
71514;DHT22;59335;46.652;21.272;2023-02-21T17:06:07;23.01;41.93
71514;DHT22;59335;46.652;21.272;2023-02-21T17:09:18;23.03;41.89
71514;DHT22;59335;46.652;21.272;2023-02-21T17:12:21;23.03;41.76
71514;DHT22;59335;46.652;21.272;2023-02-21T17:15:25;23.02;41.64
71514;DHT22;59335;46.652;21.272;2023-02-21T17:18:31;23.01;41.62
71514;DHT22;59335;46.652;21.272;2023-02-21T17:21:35;23.02;41.51
71514;DHT22;59335;46.652;21.272;2023-02-21T17:24:38;23.01;41.57
71514;DHT22;59335;46.652;21.272;2023-02-21T17:27:43;23.01;41.47
71514;DHT22;59335;46.652;21.272;2023-02-21T17:30:48;23.02;41.44
71514;DHT22;59335;46.652;21.272;2023-02-21T17:33:52;23.02;41.36
71514;DHT22;59335;46.652;21.272;2023-02-21T17:36:57;23.01;41.26
71514;DHT22;59335;46.652;21.272;2023-02-21T17:40:01;22.99;41.26
71514;DHT22;59335;46.652;21.272;2023-02-21T17:43:07;23.01;41.24
71514;DHT22;59335;46.652;21.272;2023-02-21T17:46:13;22.99;41.22
71514;DHT22;59335;46.652;21.272;2023-02-21T17:49:19;23.01;41.09
71514;DHT22;59335;46.652;21.272;2023-02-21T17:52:24;23.01;41.03
71514;DHT22;59335;46.652;21.272;2023-02-21T17:55:28;22.99;41.00
71514;DHT22;59335;46.652;21.272;2023-02-21T17:58:34;22.98;40.96
71514;DHT22;59335;46.652;21.272;2023-02-21T18:01:37;22.99;40.92
71514;DHT22;59335;46.652;21.272;2023-02-21T18:04:44;23.01;40.78
71514;DHT22;59335;46.652;21.272;2023-02-21T18:07:52;22.98;40.89
71514;DHT22;59335;46.652;21.272;2023-02-21T18:10:55;22.98;40.84
71514;DHT22;59335;46.652;21.272;2023-02-21T18:13:59;22.98;40.81
71514;DHT22;59335;46.652;21.272;2023-02-21T18:17:03;22.98;40.85
71514;DHT22;59335;46.652;21.272;2023-02-21T18:20:08;22.98;40.85
71514;DHT22;59335;46.652;21.272;2023-02-21T18:23:17;22.99;40.73
71514;DHT22;59335;46.652;21.272;2023-02-21T18:26:21;22.96;40.65
71514;DHT22;59335;46.652;21.272;2023-02-21T18:29:25;22.95;40.58
71514;DHT22;59335;46.652;21.272;2023-02-21T18:32:30;22.96;40.55
71514;DHT22;59335;46.652;21.272;2023-02-21T18:35:34;22.95;40.61
71514;DHT22;59335;46.652;21.272;2023-02-21T18:38:40;22.95;40.53
71514;DHT22;59335;46.652;21.272;2023-02-21T18:41:45;22.94;40.65
71514;DHT22;59335;46.652;21.272;2023-02-21T18:44:50;22.96;40.61
71514;DHT22;59335;46.652;21.272;2023-02-21T18:48:01;22.94;40.58
71514;DHT22;59335;46.652;21.272;2023-02-21T18:51:08;22.95;40.47
71514;DHT22;59335;46.652;21.272;2023-02-21T18:54:14;22.95;40.40
71514;DHT22;59335;46.652;21.272;2023-02-21T18:57:21;22.98;40.36
71514;DHT22;59335;46.652;21.272;2023-02-21T19:00:28;22.94;40.43
71514;DHT22;59335;46.652;21.272;2023-02-21T19:03:33;22.94;40.41
71514;DHT22;59335;46.652;21.272;2023-02-21T19:06:39;22.94;40.41
71514;DHT22;59335;46.652;21.272;2023-02-21T19:09:45;22.91;40.37
71514;DHT22;59335;46.652;21.272;2023-02-21T19:12:50;22.94;40.41
71514;DHT22;59335;46.652;21.272;2023-02-21T19:15:54;22.92;40.40
71514;DHT22;59335;46.652;21.272;2023-02-21T19:19:01;22.94;40.34
71514;DHT22;59335;46.652;21.272;2023-02-21T19:22:08;22.94;40.37
71514;DHT22;59335;46.652;21.272;2023-02-21T19:25:15;22.94;40.35
71514;DHT22;59335;46.652;21.272;2023-02-21T19:28:21;22.92;40.28
71514;DHT22;59335;46.652;21.272;2023-02-21T19:31:32;22.92;40.28
71514;DHT22;59335;46.652;21.272;2023-02-21T19:34:36;22.94;40.33
71514;DHT22;59335;46.652;21.272;2023-02-21T19:37:43;22.94;40.19
71514;DHT22;59335;46.652;21.272;2023-02-21T19:40:48;22.92;40.17
71514;DHT22;59335;46.652;21.272;2023-02-21T19:43:52;22.91;40.19
71514;DHT22;59335;46.652;21.272;2023-02-21T19:46:56;22.91;40.25
71514;DHT22;59335;46.652;21.272;2023-02-21T19:50:01;22.91;40.21
71514;DHT22;59335;46.652;21.272;2023-02-21T19:53:08;22.94;40.24
71514;DHT22;59335;46.652;21.272;2023-02-21T19:56:13;22.91;40.18
71514;DHT22;59335;46.652;21.272;2023-02-21T19:59:18;22.91;40.18
71514;DHT22;59335;46.652;21.272;2023-02-21T20:02:25;22.91;40.17
71514;DHT22;59335;46.652;21.272;2023-02-21T20:05:29;22.91;40.17
71514;DHT22;59335;46.652;21.272;2023-02-21T20:08:34;22.90;40.13
71514;DHT22;59335;46.652;21.272;2023-02-21T20:11:42;22.91;40.18
71514;DHT22;59335;46.652;21.272;2023-02-21T20:14:48;22.91;40.16
71514;DHT22;59335;46.652;21.272;2023-02-21T20:17:55;22.91;40.11
71514;DHT22;59335;46.652;21.272;2023-02-21T20:20:59;22.88;40.10
71514;DHT22;59335;46.652;21.272;2023-02-21T20:24:05;22.88;40.14
71514;DHT22;59335;46.652;21.272;2023-02-21T20:27:20;22.90;40.06
71514;DHT22;59335;46.652;21.272;2023-02-21T20:30:26;22.90;40.02
71514;DHT22;59335;46.652;21.272;2023-02-21T20:33:31;22.90;40.08
71514;DHT22;59335;46.652;21.272;2023-02-21T20:36:39;22.88;40.08
71514;DHT22;59335;46.652;21.272;2023-02-21T20:39:48;22.90;40.11
71514;DHT22;59335;46.652;21.272;2023-02-21T20:42:55;22.88;40.14
71514;DHT22;59335;46.652;21.272;2023-02-21T20:46:00;22.85;40.08
71514;DHT22;59335;46.652;21.272;2023-02-21T20:49:06;22.85;39.95
71514;DHT22;59335;46.652;21.272;2023-02-21T20:52:11;22.85;39.95
71514;DHT22;59335;46.652;21.272;2023-02-21T20:55:15;22.85;39.88
71514;DHT22;59335;46.652;21.272;2023-02-21T20:58:23;22.85;39.84
71514;DHT22;59335;46.652;21.272;2023-02-21T21:01:28;22.84;39.88
71514;DHT22;59335;46.652;21.272;2023-02-21T21:04:35;22.85;39.80
71514;DHT22;59335;46.652;21.272;2023-02-21T21:07:46;22.85;39.76
71514;DHT22;59335;46.652;21.272;2023-02-21T21:10:51;22.84;39.77
71514;DHT22;59335;46.652;21.272;2023-02-21T21:13:55;22.85;39.75
71514;DHT22;59335;46.652;21.272;2023-02-21T21:17:01;22.84;39.78
71514;DHT22;59335;46.652;21.272;2023-02-21T21:20:09;22.84;39.68
71514;DHT22;59335;46.652;21.272;2023-02-21T21:23:17;22.85;39.70
71514;DHT22;59335;46.652;21.272;2023-02-21T21:26:22;22.82;39.57
71514;DHT22;59335;46.652;21.272;2023-02-21T21:29:28;22.84;39.62
71514;DHT22;59335;46.652;21.272;2023-02-21T21:32:36;22.82;39.63
71514;DHT22;59335;46.652;21.272;2023-02-21T21:35:40;22.84;39.66
71514;DHT22;59335;46.652;21.272;2023-02-21T21:38:46;22.82;39.63
71514;DHT22;59335;46.652;21.272;2023-02-21T21:41:55;22.82;39.62
71514;DHT22;59335;46.652;21.272;2023-02-21T21:45:11;22.82;39.64
71514;DHT22;59335;46.652;21.272;2023-02-21T21:48:22;22.82;39.64
71514;DHT22;59335;46.652;21.272;2023-02-21T21:51:28;22.82;39.60
71514;DHT22;59335;46.652;21.272;2023-02-21T21:54:34;22.79;39.66
71514;DHT22;59335;46.652;21.272;2023-02-21T21:57:40;22.81;39.68
71514;DHT22;59335;46.652;21.272;2023-02-21T22:00:45;22.84;39.63
71514;DHT22;59335;46.652;21.272;2023-02-21T22:03:48;22.81;39.60
71514;DHT22;59335;46.652;21.272;2023-02-21T22:06:54;22.81;39.59